Time;durP1;ratioP1;P1;durP2;ratioP2;P2;SDS_P1;SDS_P2;PMS_P1;PMS_P2;Temp;Humidity;BMP_temperature;BMP_pressure;BME280_temperature;BME280_humidity;BME280_pressure;Samples;Min_cycle;Max_cycle;Signal;HPM_P1;HPM_P2
2021/06/10 00:01:04;;;;;;;11.80;10.80;;;15.20;99.90;;;;;;5073075;28;20621;-84
2021/06/10 00:03:31;;;;;;;11.30;10.10;;;15.10;99.90;;;;;;5073165;28;20646;-84
2021/06/10 00:05:57;;;;;;;11.77;10.70;;;15.00;99.90;;;;;;5072794;28;20606;-84
2021/06/10 00:08:23;;;;;;;12.50;11.30;;;15.00;99.90;;;;;;5073279;28;20605;-85
2021/06/10 00:10:52;;;;;;;11.17;10.07;;;15.00;99.90;;;;;;5072985;28;20666;-84
2021/06/10 00:13:18;;;;;;;11.90;10.03;;;15.00;99.90;;;;;;5072825;28;20657;-84
2021/06/10 00:15:44;;;;;;;11.17;9.60;;;15.00;99.90;;;;;;5072396;28;21173;-83
2021/06/10 00:18:12;;;;;;;10.37;9.37;;;15.10;99.90;;;;;;5072687;28;20692;-84
2021/06/10 00:20:40;;;;;;;10.80;9.70;;;15.10;99.90;;;;;;5073494;28;20609;-83
2021/06/10 00:23:07;;;;;;;11.83;10.63;;;15.10;99.90;;;;;;5071370;28;20613;-83
2021/06/10 00:25:34;;;;;;;11.10;10.00;;;15.10;99.90;;;;;;5056585;28;20633;-83
2021/06/10 00:28:01;;;;;;;12.27;10.70;;;15.10;99.90;;;;;;5064696;28;20674;-83
2021/06/10 00:30:28;;;;;;;10.93;9.93;;;15.00;99.90;;;;;;5061354;28;21150;-83
2021/06/10 00:32:55;;;;;;;13.20;11.90;;;15.00;99.90;;;;;;5067154;28;21182;-83
2021/06/10 00:35:23;;;;;;;11.67;10.57;;;15.00;99.90;;;;;;5071315;28;20602;-83
2021/06/10 00:37:51;;;;;;;14.50;13.03;;;14.90;99.90;;;;;;5072062;28;21174;-83
2021/06/10 00:40:17;;;;;;;12.40;11.10;;;15.00;99.90;;;;;;5072297;28;20663;-83
2021/06/10 00:42:44;;;;;;;12.63;11.17;;;15.00;99.90;;;;;;5072333;28;20605;-83
2021/06/10 00:45:17;;;;;;;11.47;10.20;;;15.00;99.90;;;;;;5071489;28;20648;-82
2021/06/10 00:47:44;;;;;;;13.83;12.53;;;15.00;99.90;;;;;;5072171;28;20664;-83
2021/06/10 00:50:11;;;;;;;12.50;11.20;;;15.00;99.90;;;;;;5072410;28;20609;-83
2021/06/10 00:52:40;;;;;;;11.53;10.53;;;15.00;99.90;;;;;;5072188;28;20617;-83
2021/06/10 00:55:08;;;;;;;13.80;10.03;;;15.00;99.90;;;;;;5071834;28;20629;-83
2021/06/10 00:57:35;;;;;;;12.70;11.40;;;14.80;99.90;;;;;;5072017;28;20617;-83
2021/06/10 01:00:02;;;;;;;11.60;10.50;;;14.90;99.90;;;;;;5072258;28;20652;-83
2021/06/10 01:02:28;;;;;;;12.10;10.90;;;15.00;99.90;;;;;;5072296;28;20652;-83
2021/06/10 01:04:55;;;;;;;11.63;10.40;;;15.00;99.90;;;;;;5071028;28;20625;-83
2021/06/10 01:07:32;;;;;;;13.30;12.00;;;14.90;99.90;;;;;;5071782;28;20645;-83
2021/06/10 01:10:08;;;;;;;13.20;10.97;;;14.90;99.90;;;;;;5071783;28;20606;-83
2021/06/10 01:12:45;;;;;;;12.10;10.97;;;14.80;99.90;;;;;;5071785;28;21170;-83
2021/06/10 01:15:14;;;;;;;12.60;11.50;;;14.80;99.90;;;;;;5071363;28;20631;-83
2021/06/10 01:17:46;;;;;;;12.03;10.83;;;14.70;99.90;;;;;;5071676;28;20609;-83
2021/06/10 01:20:17;;;;;;;13.53;12.30;;;14.70;99.90;;;;;;5071715;28;21020;-83
2021/06/10 01:22:54;;;;;;;15.13;11.40;;;14.70;99.90;;;;;;5070436;28;20629;-84
2021/06/10 01:25:38;;;;;;;12.13;10.83;;;14.80;99.90;;;;;;5070854;28;21077;-83
2021/06/10 01:28:10;;;;;;;12.00;10.90;;;14.80;99.90;;;;;;5071628;28;20632;-83
2021/06/10 01:30:43;;;;;;;11.50;10.10;;;14.90;99.90;;;;;;5070867;28;20962;-84
2021/06/10 01:33:14;;;;;;;13.03;11.83;;;14.70;99.90;;;;;;5061019;28;20975;-83
2021/06/10 01:35:47;;;;;;;12.10;10.90;;;14.70;99.90;;;;;;5051008;28;20709;-83
2021/06/10 01:38:16;;;;;;;11.70;10.50;;;14.70;99.90;;;;;;5070036;28;20628;-83
2021/06/10 01:40:44;;;;;;;10.73;9.67;;;14.60;99.90;;;;;;5071012;28;21291;-84
2021/06/10 01:43:14;;;;;;;13.60;10.60;;;14.60;99.90;;;;;;5071148;28;21177;-83
2021/06/10 01:45:44;;;;;;;12.63;11.37;;;14.70;99.90;;;;;;5070639;28;20705;-83
2021/06/10 01:48:12;;;;;;;12.23;11.10;;;14.70;99.90;;;;;;5070929;28;20613;-84
2021/06/10 01:50:40;;;;;;;11.80;10.60;;;14.70;99.90;;;;;;5070707;28;20629;-83
2021/06/10 01:53:14;;;;;;;11.50;10.13;;;14.70;99.90;;;;;;5065026;28;20772;-84
2021/06/10 01:55:43;;;;;;;11.27;10.13;;;14.70;99.90;;;;;;5062892;28;20632;-83
2021/06/10 01:58:12;;;;;;;11.80;10.60;;;14.60;99.90;;;;;;5066736;28;20636;-84
2021/06/10 02:00:42;;;;;;;11.07;10.07;;;14.60;99.90;;;;;;5055711;28;20649;-83
2021/06/10 02:03:11;;;;;;;11.53;10.33;;;14.50;99.90;;;;;;5070979;28;20608;-84
2021/06/10 02:05:41;;;;;;;11.43;10.33;;;14.60;99.90;;;;;;5070233;28;20632;-84
2021/06/10 02:08:11;;;;;;;12.23;10.93;;;14.60;99.90;;;;;;5070339;28;20670;-83
2021/06/10 02:10:40;;;;;;;10.87;9.80;;;14.50;99.90;;;;;;5070091;28;21242;-84
2021/06/10 02:13:07;;;;;;;13.30;11.43;;;14.40;99.90;;;;;;5070621;28;20616;-83
2021/06/10 02:15:37;;;;;;;10.70;9.60;;;14.40;99.90;;;;;;5068590;28;20613;-83
2021/06/10 02:18:04;;;;;;;11.53;10.23;;;14.40;99.90;;;;;;5069008;28;20724;-83
2021/06/10 02:20:32;;;;;;;11.43;10.33;;;14.40;99.90;;;;;;5068942;28;20686;-83
2021/06/10 02:23:06;;;;;;;12.70;9.90;;;14.30;99.90;;;;;;5069923;28;20617;-83
2021/06/10 02:25:33;;;;;;;10.90;9.90;;;14.20;99.90;;;;;;5069371;28;20645;-83
2021/06/10 02:28:01;;;;;;;12.50;11.23;;;14.30;99.90;;;;;;5070185;28;20662;-83
2021/06/10 02:30:29;;;;;;;12.43;11.23;;;14.40;99.90;;;;;;5069335;28;20625;-83
2021/06/10 02:32:57;;;;;;;10.50;9.50;;;14.30;99.90;;;;;;5070341;28;20610;-82
2021/06/10 02:35:23;;;;;;;11.70;10.60;;;14.30;99.90;;;;;;5068185;28;21182;-83
2021/06/10 02:37:52;;;;;;;12.17;10.27;;;14.30;99.90;;;;;;5069370;28;20602;-83
2021/06/10 02:40:25;;;;;;;11.33;10.17;;;14.30;99.90;;;;;;5068147;28;20645;-83
2021/06/10 02:42:52;;;;;;;11.97;10.73;;;14.30;99.90;;;;;;5069602;28;20625;-83
2021/06/10 02:45:20;;;;;;;12.23;11.03;;;14.30;99.90;;;;;;5060731;28;20629;-83
2021/06/10 02:47:48;;;;;;;12.43;11.23;;;14.30;99.90;;;;;;5061505;28;20631;-83
2021/06/10 02:50:18;;;;;;;12.10;10.80;;;14.30;99.90;;;;;;5061256;28;20621;-83
2021/06/10 02:52:48;;;;;;;11.97;10.90;;;14.20;99.90;;;;;;5053550;28;20623;-83
2021/06/10 02:55:16;;;;;;;11.87;10.77;;;14.30;99.90;;;;;;5049153;28;20609;-83
2021/06/10 02:57:45;;;;;;;12.13;10.90;;;14.20;99.90;;;;;;5055199;28;20621;-83
2021/06/10 03:00:13;;;;;;;10.60;9.60;;;14.10;99.90;;;;;;5073781;28;20644;-83
2021/06/10 03:02:40;;;;;;;12.17;10.87;;;14.20;99.90;;;;;;5073815;28;20605;-83
2021/06/10 03:05:08;;;;;;;10.30;9.40;;;14.20;99.90;;;;;;5064494;28;20661;-83
2021/06/10 03:07:36;;;;;;;11.77;10.63;;;14.10;99.90;;;;;;5073954;28;20601;-83
2021/06/10 03:10:04;;;;;;;11.07;9.97;;;14.10;99.90;;;;;;5073970;28;20636;-83
2021/06/10 03:12:31;;;;;;;9.77;8.73;;;14.10;99.90;;;;;;5073780;28;20671;-83
2021/06/10 03:15:00;;;;;;;11.17;10.17;;;14.10;99.90;;;;;;5073182;28;20643;-83
2021/06/10 03:17:27;;;;;;;10.20;9.20;;;14.10;99.90;;;;;;5074153;28;21196;-83
2021/06/10 03:19:53;;;;;;;10.20;9.20;;;14.10;99.90;;;;;;5073594;28;20679;-83
2021/06/10 03:22:20;;;;;;;10.67;9.57;;;14.10;99.90;;;;;;5073819;28;20605;-83
2021/06/10 03:24:49;;;;;;;11.20;10.10;;;14.00;99.90;;;;;;5073166;28;20613;-82
2021/06/10 03:27:16;;;;;;;11.63;10.43;;;14.10;99.90;;;;;;5073418;28;20612;-83
2021/06/10 03:29:43;;;;;;;10.90;9.80;;;14.10;99.90;;;;;;5072014;28;20810;-83
2021/06/10 03:32:10;;;;;;;11.23;10.00;;;14.10;99.90;;;;;;5073798;28;20633;-83
2021/06/10 03:34:37;;;;;;;9.60;8.70;;;14.10;99.90;;;;;;5073248;28;20629;-83
2021/06/10 03:37:07;;;;;;;11.00;9.90;;;14.00;99.90;;;;;;5073750;28;20666;-84
2021/06/10 03:39:35;;;;;;;11.83;10.63;;;14.00;99.90;;;;;;5073510;28;20643;-83
2021/06/10 03:42:04;;;;;;;10.63;9.53;;;14.00;99.90;;;;;;5059989;28;20633;-83
2021/06/10 03:44:45;;;;;;;11.10;10.00;;;14.00;99.90;;;;;;5058523;28;21208;-85
2021/06/10 03:47:12;;;;;;;11.20;10.00;;;14.00;99.90;;;;;;5067582;28;20628;-84
2021/06/10 03:49:39;;;;;;;12.27;10.97;;;14.10;99.90;;;;;;5073340;28;20608;-84
2021/06/10 03:52:06;;;;;;;11.23;9.47;;;13.90;99.90;;;;;;5073367;28;20619;-84
2021/06/10 03:54:33;;;;;;;11.00;9.90;;;13.90;99.90;;;;;;5073021;28;20625;-82
2021/06/10 03:57:00;;;;;;;11.57;10.43;;;13.80;99.90;;;;;;5073171;28;20948;-82
2021/06/10 03:59:27;;;;;;;12.60;10.80;;;13.80;99.90;;;;;;5072843;28;20750;-82
2021/06/10 04:01:54;;;;;;;10.83;9.77;;;13.90;99.90;;;;;;5064483;28;20622;-82
2021/06/10 04:04:20;;;;;;;12.37;11.17;;;14.00;99.90;;;;;;5068306;28;20784;-82
2021/06/10 04:06:48;;;;;;;11.33;10.23;;;14.10;99.90;;;;;;5060798;28;20660;-82
2021/06/10 04:09:14;;;;;;;12.90;11.70;;;14.10;99.90;;;;;;5052355;28;20622;-82
2021/06/10 04:11:41;;;;;;;10.63;9.57;;;14.10;99.90;;;;;;5051715;28;20999;-83
2021/06/10 04:14:07;;;;;;;12.47;10.03;;;14.20;99.90;;;;;;5052698;28;20656;-83
2021/06/10 04:16:35;;;;;;;11.63;10.33;;;14.30;99.90;;;;;;5065357;28;20655;-83
2021/06/10 04:19:01;;;;;;;10.90;9.90;;;14.20;99.90;;;;;;5072668;28;20644;-83
2021/06/10 04:21:28;;;;;;;12.27;11.00;;;14.30;99.90;;;;;;5054170;28;21197;-82
2021/06/10 04:23:54;;;;;;;14.30;11.13;;;14.50;99.90;;;;;;5052103;28;20613;-82
2021/06/10 04:26:21;;;;;;;14.67;11.27;;;14.60;99.90;;;;;;5055114;28;20688;-83
2021/06/10 04:28:48;;;;;;;14.37;12.83;;;14.70;99.90;;;;;;5060704;28;21187;-83
2021/06/10 04:31:16;;;;;;;13.20;11.90;;;14.70;99.90;;;;;;5067243;28;20629;-83
2021/06/10 04:33:44;;;;;;;15.10;11.90;;;14.80;99.90;;;;;;5061238;28;20664;-83
2021/06/10 04:36:11;;;;;;;13.53;12.17;;;14.90;99.90;;;;;;5063167;28;20618;-83
2021/06/10 04:38:49;;;;;;;13.87;12.40;;;15.00;99.90;;;;;;5061168;28;20665;-84
2021/06/10 04:41:16;;;;;;;14.37;12.50;;;14.90;99.90;;;;;;5054675;28;20621;-82
2021/06/10 04:43:42;;;;;;;12.97;11.67;;;15.00;99.90;;;;;;5066589;28;21317;-82
2021/06/10 04:46:09;;;;;;;14.53;11.27;;;15.10;99.90;;;;;;5060397;28;20680;-83
2021/06/10 04:48:37;;;;;;;12.67;11.37;;;15.10;99.90;;;;;;5061928;28;20633;-82
2021/06/10 04:51:05;;;;;;;12.37;10.60;;;15.30;99.90;;;;;;5066925;28;20620;-83
2021/06/10 04:53:32;;;;;;;14.30;12.73;;;15.30;99.90;;;;;;5064727;28;20656;-84
2021/06/10 04:56:02;;;;;;;12.90;11.70;;;15.50;99.90;;;;;;5063771;28;21028;-85
2021/06/10 04:58:28;;;;;;;12.73;11.43;;;15.50;99.90;;;;;;5065286;28;20636;-84
2021/06/10 05:01:05;;;;;;;12.13;10.90;;;15.50;99.90;;;;;;5062675;28;21288;-85
2021/06/10 05:03:32;;;;;;;13.10;11.80;;;15.60;99.90;;;;;;5062961;28;20617;-84
2021/06/10 05:05:58;;;;;;;12.03;10.80;;;15.60;99.90;;;;;;5060613;28;20640;-84
2021/06/10 05:08:26;;;;;;;12.50;11.23;;;15.70;99.90;;;;;;5062284;28;20734;-83
2021/06/10 05:10:53;;;;;;;13.77;12.30;;;15.80;99.90;;;;;;5062143;28;21031;-84
2021/06/10 05:13:19;;;;;;;14.00;12.60;;;15.80;99.90;;;;;;5062419;28;20742;-83
2021/06/10 05:15:45;;;;;;;14.10;12.70;;;16.00;99.90;;;;;;5065751;28;21064;-83
2021/06/10 05:18:12;;;;;;;15.70;11.30;;;16.10;99.90;;;;;;5058926;28;20646;-83
2021/06/10 05:20:38;;;;;;;13.03;11.73;;;16.10;99.90;;;;;;5066574;28;20693;-83
2021/06/10 05:23:05;;;;;;;13.20;11.93;;;16.20;99.90;;;;;;5063041;28;20626;-83
2021/06/10 05:25:33;;;;;;;11.83;10.73;;;16.20;99.90;;;;;;5069159;28;20683;-84
2021/06/10 05:27:59;;;;;;;14.03;12.73;;;16.30;99.90;;;;;;5067145;28;20633;-84
2021/06/10 05:30:26;;;;;;;12.67;11.40;;;16.30;99.90;;;;;;5053377;28;20635;-83
2021/06/10 05:32:54;;;;;;;12.50;11.20;;;16.40;99.90;;;;;;5063272;28;20629;-84
2021/06/10 05:35:20;;;;;;;15.70;13.03;;;16.50;99.90;;;;;;5066369;28;20626;-84
2021/06/10 05:37:47;;;;;;;13.00;11.70;;;16.50;99.90;;;;;;5068386;28;20655;-84
2021/06/10 05:40:14;;;;;;;13.00;11.73;;;16.60;99.90;;;;;;5069136;28;21124;-85
2021/06/10 05:42:42;;;;;;;13.43;12.17;;;16.60;99.90;;;;;;5059990;28;20982;-84
2021/06/10 05:45:10;;;;;;;12.73;11.43;;;16.60;99.90;;;;;;5057737;28;20641;-85
2021/06/10 05:47:37;;;;;;;11.83;10.63;;;16.70;99.90;;;;;;5063213;28;20660;-84
2021/06/10 05:50:05;;;;;;;11.97;10.40;;;16.70;99.90;;;;;;5070189;28;20653;-85
2021/06/10 05:52:33;;;;;;;12.47;11.27;;;16.80;99.90;;;;;;5068797;28;20626;-85
2021/06/10 05:55:01;;;;;;;12.27;10.93;;;16.90;99.90;;;;;;5070473;28;20659;-85
2021/06/10 05:57:28;;;;;;;11.67;10.60;;;16.90;99.90;;;;;;5068937;28;20662;-85
2021/06/10 05:59:57;;;;;;;9.83;8.93;;;17.00;99.90;;;;;;5069806;28;20644;-85
2021/06/10 06:02:23;;;;;;;11.43;10.33;;;17.10;99.90;;;;;;5061757;28;20715;-85
2021/06/10 06:04:50;;;;;;;10.63;9.63;;;17.30;99.90;;;;;;5069002;28;20639;-85
2021/06/10 06:07:17;;;;;;;11.57;10.40;;;17.30;99.90;;;;;;5070818;28;21181;-84
2021/06/10 06:09:44;;;;;;;9.77;8.93;;;17.40;99.90;;;;;;5070133;28;20609;-85
2021/06/10 06:12:12;;;;;;;10.90;9.80;;;17.50;99.90;;;;;;5070242;28;20613;-85
2021/06/10 06:14:39;;;;;;;11.10;10.10;;;17.60;99.90;;;;;;5068740;28;20629;-85
2021/06/10 06:17:09;;;;;;;11.03;9.87;;;17.60;99.90;;;;;;5070568;28;21006;-85
2021/06/10 06:19:36;;;;;;;11.00;9.97;;;17.70;99.90;;;;;;5068004;28;20645;-85
2021/06/10 06:22:03;;;;;;;10.00;9.00;;;17.80;99.90;;;;;;5068341;28;20610;-84
2021/06/10 06:24:31;;;;;;;9.47;8.63;;;17.90;99.90;;;;;;5066558;28;20652;-84
2021/06/10 06:26:57;;;;;;;10.57;9.47;;;18.10;99.90;;;;;;5069842;28;20644;-85
2021/06/10 06:29:24;;;;;;;12.23;8.73;;;18.20;99.90;;;;;;5070045;28;21240;-83
2021/06/10 06:31:50;;;;;;;11.23;10.23;;;18.20;99.90;;;;;;5070110;28;20632;-85
2021/06/10 06:34:18;;;;;;;10.37;9.47;;;18.30;99.90;;;;;;5067284;28;21288;-85
2021/06/10 06:36:45;;;;;;;11.67;10.60;;;18.40;99.90;;;;;;5064670;28;20617;-85
2021/06/10 06:39:13;;;;;;;10.30;9.40;;;18.50;99.90;;;;;;5063380;28;20630;-85
2021/06/10 06:41:40;;;;;;;9.73;8.87;;;18.60;99.90;;;;;;5061824;28;20628;-85
2021/06/10 06:44:07;;;;;;;10.63;9.63;;;18.60;99.90;;;;;;5071290;28;20655;-86
2021/06/10 06:46:34;;;;;;;10.20;9.30;;;18.70;99.90;;;;;;5065742;28;20624;-86
2021/06/10 06:49:01;;;;;;;10.80;9.80;;;18.70;99.90;;;;;;5068805;28;21343;-85
2021/06/10 06:52:24;;;;;;;;;;;;;;;;;;;;;
2021/06/10 06:55:07;;;;;;;9.87;8.67;;;19.00;99.90;;;;;;5044315;28;20704;-86
2021/06/10 06:58:03;;;;;;;11.17;10.17;;;19.00;99.90;;;;;;5051060;28;20683;-86
2021/06/10 07:00:31;;;;;;;9.43;8.63;;;19.10;99.90;;;;;;5057006;28;20668;-83
2021/06/10 07:02:57;;;;;;;9.57;8.77;;;19.20;99.90;;;;;;5052702;28;20726;-85
2021/06/10 07:05:24;;;;;;;10.37;9.47;;;19.20;99.90;;;;;;5060320;28;20631;-84
2021/06/10 07:07:51;;;;;;;10.90;9.90;;;19.10;99.90;;;;;;5047811;28;20614;-85
2021/06/10 07:10:19;;;;;;;11.27;10.27;;;19.30;99.90;;;;;;5050498;28;20676;-86
2021/06/10 07:12:45;;;;;;;10.27;9.37;;;19.30;99.90;;;;;;5049251;28;20652;-85
2021/06/10 07:15:13;;;;;;;11.80;10.80;;;19.40;99.90;;;;;;5067892;28;20617;-84
2021/06/10 07:17:39;;;;;;;10.17;9.23;;;19.40;99.90;;;;;;5069833;28;20946;-83
2021/06/10 07:20:07;;;;;;;9.57;8.70;;;19.60;99.90;;;;;;5069906;28;20640;-83
2021/06/10 07:22:38;;;;;;;10.27;9.37;;;19.60;99.90;;;;;;5070035;28;20632;-86
2021/06/10 07:25:06;;;;;;;9.60;8.80;;;19.80;99.90;;;;;;5054421;28;20627;-84
2021/06/10 07:27:34;;;;;;;10.70;9.80;;;19.80;99.90;;;;;;5066644;28;20641;-84
2021/06/10 07:30:00;;;;;;;9.83;8.93;;;19.90;99.90;;;;;;5069569;28;21003;-85
2021/06/10 07:32:27;;;;;;;9.80;8.93;;;20.10;99.90;;;;;;5069143;28;20640;-83
2021/06/10 07:34:54;;;;;;;11.30;10.30;;;20.20;99.90;;;;;;5069017;28;20664;-84
2021/06/10 07:37:23;;;;;;;10.73;9.83;;;20.30;99.90;;;;;;5055525;28;20642;-85
2021/06/10 07:39:51;;;;;;;10.80;9.80;;;20.40;99.90;;;;;;5051974;28;20670;-84
2021/06/10 07:42:17;;;;;;;11.47;10.47;;;20.40;99.70;;;;;;5063369;28;20618;-86
2021/06/10 07:44:45;;;;;;;9.80;9.00;;;20.30;99.80;;;;;;5070535;28;21187;-87
2021/06/10 07:47:13;;;;;;;10.70;9.90;;;20.30;99.70;;;;;;5070460;28;21056;-88
2021/06/10 07:49:40;;;;;;;9.63;8.73;;;20.40;99.90;;;;;;5068776;28;20629;-85
2021/06/10 07:52:11;;;;;;;10.60;9.70;;;20.50;99.60;;;;;;5056490;28;20619;-87
2021/06/10 07:54:37;;;;;;;11.80;10.60;;;20.60;99.70;;;;;;5052469;28;20623;-85
2021/06/10 07:57:19;;;;;;;10.73;9.80;;;20.80;99.30;;;;;;5067507;28;20606;-86
2021/06/10 07:59:50;;;;;;;10.10;9.20;;;20.90;99.00;;;;;;5071248;28;20706;-86
2021/06/10 08:02:16;;;;;;;10.00;9.10;;;21.00;99.40;;;;;;5064182;28;21230;-87
2021/06/10 08:04:44;;;;;;;11.13;9.77;;;20.90;99.10;;;;;;5074488;28;20722;-87
2021/06/10 08:07:11;;;;;;;10.70;9.60;;;20.80;98.60;;;;;;5074924;28;20631;-87
2021/06/10 08:09:38;;;;;;;11.23;10.13;;;20.80;99.60;;;;;;5075212;28;20631;-86
2021/06/10 08:12:08;;;;;;;11.53;10.50;;;20.80;98.80;;;;;;5072698;28;21207;-85
2021/06/10 08:14:35;;;;;;;10.53;9.53;;;21.10;98.50;;;;;;5067138;28;20620;-88
2021/06/10 08:17:03;;;;;;;10.40;9.40;;;21.30;98.90;;;;;;5071318;28;20637;-87
2021/06/10 08:19:29;;;;;;;11.40;10.50;;;21.40;98.70;;;;;;5075916;28;20608;-89
2021/06/10 08:21:56;;;;;;;11.50;10.40;;;21.50;98.60;;;;;;5075867;28;20623;-87
2021/06/10 08:24:24;;;;;;;11.70;10.60;;;21.50;97.80;;;;;;5073512;28;20688;-86
2021/06/10 08:26:51;;;;;;;12.80;11.50;;;21.50;97.90;;;;;;5072408;28;20713;-87
2021/06/10 08:29:18;;;;;;;11.63;10.57;;;21.60;97.30;;;;;;5074024;28;20740;-87
2021/06/10 08:31:46;;;;;;;11.23;10.23;;;21.70;97.00;;;;;;5075746;28;20996;-86
2021/06/10 08:34:14;;;;;;;11.17;10.17;;;21.50;97.70;;;;;;5075177;28;20654;-86
2021/06/10 08:36:40;;;;;;;10.57;9.67;;;21.60;97.70;;;;;;5075705;28;20624;-87
2021/06/10 08:39:07;;;;;;;11.63;10.53;;;21.80;98.40;;;;;;5070663;28;20640;-87
2021/06/10 08:41:34;;;;;;;10.47;9.47;;;21.80;97.50;;;;;;5061900;28;20677;-87
2021/06/10 08:44:00;;;;;;;12.57;11.47;;;21.70;97.90;;;;;;5075704;28;20700;-86
2021/06/10 08:46:27;;;;;;;11.30;10.30;;;21.60;97.70;;;;;;5076040;28;20640;-87
2021/06/10 08:48:54;;;;;;;11.70;10.60;;;21.60;97.60;;;;;;5071815;28;20659;-86
2021/06/10 08:51:22;;;;;;;12.90;11.80;;;21.50;98.10;;;;;;5071885;28;20613;-86
2021/06/10 08:53:50;;;;;;;12.73;11.43;;;21.60;97.80;;;;;;5066075;28;20620;-86
2021/06/10 08:56:17;;;;;;;11.87;10.80;;;21.80;97.00;;;;;;5074928;28;20636;-85
2021/06/10 08:58:43;;;;;;;10.57;9.47;;;22.00;98.00;;;;;;5068792;28;20659;-86
2021/06/10 09:01:13;;;;;;;11.97;10.77;;;22.20;97.30;;;;;;5070400;28;21209;-87
2021/06/10 09:03:40;;;;;;;13.50;12.20;;;22.20;96.20;;;;;;5071206;28;20634;-86
2021/06/10 09:06:08;;;;;;;13.43;12.27;;;22.40;96.50;;;;;;5074693;28;20631;-86
2021/06/10 09:08:37;;;;;;;12.30;11.20;;;22.70;95.60;;;;;;5074822;28;20626;-87
2021/06/10 09:11:06;;;;;;;12.40;11.30;;;22.70;95.50;;;;;;5074866;28;20636;-86
2021/06/10 09:13:42;;;;;;;13.03;11.97;;;22.70;95.80;;;;;;5057436;28;20649;-86
2021/06/10 09:16:24;;;;;;;12.87;11.67;;;22.60;95.80;;;;;;5065707;28;20627;-85
2021/06/10 09:19:02;;;;;;;13.17;11.87;;;22.60;95.20;;;;;;5054881;28;20628;-86
2021/06/10 09:21:31;;;;;;;13.03;11.73;;;22.80;94.70;;;;;;5066399;28;20700;-86
2021/06/10 09:24:24;;;;;;;13.10;11.80;;;23.00;95.10;;;;;;5074352;28;20624;-86
2021/06/10 09:27:14;;;;;;;11.30;10.33;;;23.00;95.00;;;;;;5075011;28;20647;-87
2021/06/10 09:29:49;;;;;;;12.73;11.73;;;23.00;95.70;;;;;;5055287;28;20987;-86
2021/06/10 09:32:19;;;;;;;12.93;11.70;;;23.10;94.60;;;;;;5055028;28;20618;-86
2021/06/10 09:34:49;;;;;;;12.37;11.10;;;23.00;94.20;;;;;;5070547;28;21313;-85
2021/06/10 09:37:27;;;;;;;13.90;12.60;;;23.30;95.70;;;;;;5073829;28;20626;-85
2021/06/10 09:39:56;;;;;;;11.63;10.53;;;23.70;94.60;;;;;;5067689;28;20646;-86
2021/06/10 09:42:43;;;;;;;12.67;11.57;;;23.80;93.80;;;;;;5058949;28;20637;-85
2021/06/10 09:46:03;;;;;;;13.27;12.07;;;23.70;93.40;;;;;;5068990;28;20735;-85
2021/06/10 09:48:42;;;;;;;13.83;12.60;;;23.30;92.70;;;;;;5062182;28;20617;-85
2021/06/10 09:51:21;;;;;;;14.53;13.33;;;23.60;93.80;;;;;;5064082;28;20619;-85
2021/06/10 09:53:47;;;;;;;13.50;12.20;;;23.80;92.00;;;;;;5066637;28;20637;-84
2021/06/10 09:56:15;;;;;;;13.07;11.87;;;23.80;92.20;;;;;;5071894;28;20626;-85
2021/06/10 09:58:43;;;;;;;15.20;13.70;;;24.00;92.40;;;;;;5066501;28;20625;-84
2021/06/10 10:01:13;;;;;;;15.07;13.67;;;24.30;91.60;;;;;;5069378;28;20641;-83
2021/06/10 10:03:41;;;;;;;14.33;12.93;;;24.60;92.30;;;;;;5072185;28;20687;-83
2021/06/10 10:06:17;;;;;;;16.67;13.37;;;24.80;91.00;;;;;;5070721;28;21255;-84
2021/06/10 10:08:46;;;;;;;14.60;13.20;;;24.90;90.40;;;;;;5063574;28;20625;-85
2021/06/10 10:11:14;;;;;;;15.07;13.50;;;25.10;90.20;;;;;;5073888;28;20668;-84
2021/06/10 10:13:44;;;;;;;16.40;14.83;;;25.40;87.90;;;;;;5073540;28;20613;-85
2021/06/10 10:16:11;;;;;;;17.77;15.50;;;25.40;88.20;;;;;;5073331;28;20621;-84
2021/06/10 10:18:37;;;;;;;14.97;13.67;;;25.50;86.50;;;;;;5069198;28;20659;-85
2021/06/10 10:21:06;;;;;;;14.43;13.23;;;25.50;87.70;;;;;;5051415;28;20708;-84
2021/06/10 10:23:33;;;;;;;14.47;13.17;;;25.70;85.60;;;;;;5052666;28;21167;-84
2021/06/10 10:26:00;;;;;;;14.90;13.50;;;25.90;86.00;;;;;;5060363;28;20673;-84
2021/06/10 10:28:29;;;;;;;14.47;13.27;;;26.00;84.90;;;;;;5072779;28;20655;-85
2021/06/10 10:30:58;;;;;;;14.53;13.33;;;26.00;84.00;;;;;;5066993;28;20624;-85
2021/06/10 10:33:27;;;;;;;16.20;14.80;;;26.00;84.50;;;;;;5070804;28;20959;-85
2021/06/10 10:35:55;;;;;;;14.53;13.23;;;25.70;82.90;;;;;;5071912;28;20652;-85
2021/06/10 10:38:30;;;;;;;14.90;13.50;;;25.50;85.30;;;;;;5072467;28;20610;-85
2021/06/10 10:41:01;;;;;;;14.23;13.13;;;25.10;86.50;;;;;;5072468;28;20653;-85
2021/06/10 10:43:30;;;;;;;15.77;14.47;;;24.70;84.60;;;;;;5072054;28;20955;-85
2021/06/10 10:46:11;;;;;;;16.00;14.67;;;24.50;84.30;;;;;;5054104;28;21214;-85
2021/06/10 10:48:39;;;;;;;14.87;13.37;;;24.20;85.70;;;;;;5053380;28;21074;-84
2021/06/10 10:51:26;;;;;;;14.50;13.10;;;24.00;89.10;;;;;;5059636;28;20651;-85
2021/06/10 10:53:58;;;;;;;14.00;12.90;;;23.80;90.70;;;;;;5071197;28;20670;-84
2021/06/10 10:56:36;;;;;;;14.33;13.00;;;23.60;90.60;;;;;;5070755;28;20633;-85
2021/06/10 10:59:11;;;;;;;15.30;13.87;;;23.60;91.70;;;;;;5072413;28;20625;-85
2021/06/10 11:01:40;;;;;;;14.60;13.30;;;23.50;90.50;;;;;;5053113;28;20665;-85
2021/06/10 11:04:07;;;;;;;15.60;14.30;;;23.50;91.00;;;;;;5056810;28;20629;-85
2021/06/10 11:06:35;;;;;;;16.80;15.40;;;23.40;91.30;;;;;;5068999;28;20637;-85
2021/06/10 11:09:10;;;;;;;16.23;14.83;;;23.30;91.20;;;;;;5053197;28;21785;-85
2021/06/10 11:11:57;;;;;;;15.93;14.40;;;23.40;90.40;;;;;;5060589;28;20727;-85
2021/06/10 11:14:45;;;;;;;16.37;14.77;;;23.90;91.20;;;;;;5070791;28;20644;-86
2021/06/10 11:17:18;;;;;;;14.73;13.43;;;24.00;90.30;;;;;;5072210;28;20626;-85
2021/06/10 11:19:57;;;;;;;16.40;14.80;;;24.40;90.50;;;;;;5073537;28;20613;-86
2021/06/10 11:22:37;;;;;;;14.47;13.27;;;24.80;88.90;;;;;;5074750;28;20636;-85
2021/06/10 11:25:07;;;;;;;15.87;14.37;;;25.30;89.20;;;;;;5074912;28;20629;-86
2021/06/10 11:27:41;;;;;;;15.03;13.70;;;25.90;88.10;;;;;;5076283;28;20708;-86
2021/06/10 11:30:16;;;;;;;17.73;16.13;;;26.50;87.00;;;;;;5076435;28;20609;-87
2021/06/10 11:33:02;;;;;;;14.83;13.70;;;26.60;80.90;;;;;;5074935;28;20616;-86
2021/06/10 11:35:34;;;;;;;17.20;15.60;;;26.00;82.70;;;;;;5071942;28;20625;-86
2021/06/10 11:38:03;;;;;;;17.17;15.67;;;25.90;81.90;;;;;;5073847;28;20715;-86
2021/06/10 11:40:30;;;;;;;17.67;16.03;;;25.80;84.10;;;;;;5073523;28;20654;-85
2021/06/10 11:42:56;;;;;;;17.60;15.80;;;25.70;80.60;;;;;;5075648;28;20620;-86
2021/06/10 11:45:26;;;;;;;16.70;15.10;;;25.50;81.10;;;;;;5074937;28;21028;-85
2021/06/10 11:47:57;;;;;;;14.20;13.00;;;26.10;82.20;;;;;;5070975;28;20606;-85
2021/06/10 11:50:32;;;;;;;15.27;13.77;;;27.10;82.10;;;;;;5070403;28;20613;-86
2021/06/10 11:53:01;;;;;;;14.93;13.70;;;27.80;77.70;;;;;;5071452;28;20628;-87
2021/06/10 11:55:32;;;;;;;14.33;13.17;;;28.50;75.30;;;;;;5071731;28;20637;-86
2021/06/10 11:58:01;;;;;;;16.70;15.10;;;29.00;74.60;;;;;;5066647;28;20621;-86
2021/06/10 12:00:36;;;;;;;16.17;14.80;;;28.20;70.70;;;;;;5066586;28;20663;-86
2021/06/10 12:03:06;;;;;;;17.07;15.47;;;27.30;71.90;;;;;;5071825;28;20620;-86
2021/06/10 12:05:38;;;;;;;16.67;15.10;;;26.30;74.50;;;;;;5071706;28;20625;-85
2021/06/10 12:08:13;;;;;;;15.83;14.57;;;25.60;78.80;;;;;;5062627;28;20617;-86
2021/06/10 12:10:46;;;;;;;16.37;15.13;;;25.50;78.10;;;;;;5070591;28;20645;-85
2021/06/10 12:13:13;;;;;;;15.30;14.00;;;25.20;79.10;;;;;;5070556;28;20625;-86
2021/06/10 12:15:44;;;;;;;16.27;14.87;;;25.10;78.80;;;;;;5062790;28;21270;-86
2021/06/10 12:18:14;;;;;;;17.67;16.27;;;25.00;78.30;;;;;;5061636;28;20652;-86
2021/06/10 12:20:42;;;;;;;17.60;16.03;;;24.80;81.20;;;;;;5074505;28;21030;-86
2021/06/10 12:23:15;;;;;;;17.20;15.80;;;24.60;80.10;;;;;;5071329;28;21073;-86
2021/06/10 12:25:47;;;;;;;16.40;15.00;;;24.60;80.10;;;;;;5064929;28;20734;-85
2021/06/10 12:28:26;;;;;;;16.97;15.37;;;24.50;79.90;;;;;;5081787;28;20679;-86
2021/06/10 12:31:00;;;;;;;16.90;15.60;;;25.30;83.50;;;;;;5075280;28;20707;-85
2021/06/10 12:33:28;;;;;;;15.40;14.20;;;26.70;76.60;;;;;;5073198;28;20650;-85
2021/06/10 12:35:56;;;;;;;14.83;13.73;;;28.00;74.40;;;;;;5072658;28;20614;-85
2021/06/10 12:38:29;;;;;;;14.43;13.33;;;29.60;72.00;;;;;;5074165;28;20621;-85
2021/06/10 12:41:10;;;;;;;14.17;13.07;;;30.80;68.80;;;;;;5073229;28;20699;-85
2021/06/10 12:43:37;;;;;;;13.60;12.50;;;30.30;64.30;;;;;;5073212;28;20653;-85